Terminal Aerodrome Forecast
Issued by NWS Tuscon, AZ

Home | Current Version | Previous Version | Text Only | Print | Product List | Glossary On
Versions: 1 2 3 4 5 6 7 8 9 10 11 12 13 14 15
000
FTUS45 KTWC 192322
TAFDUG
TAF
KDUG 192322Z 2000/2024 25013G22KT P6SM VCSH SCT030 BKN045
     FM200300 35008KT P6SM SCT035 BKN060
     FM200900 VRB03KT P6SM VCFG FEW010 SCT070
     FM201600 VRB04KT P6SM FEW025 SCT070
     FM202000 35007KT P6SM SCT060=

USA.gov is the U.S. government's official web portal to all federal, state and local government web resources and services.